• Join FlightAware (Why Join?)
  • Login
  • US Flag 
11:17AM EDT


 

Airport Tracker/Info


-or-


 

Live Flight TrackerFlight Track Log ✈ N693EE ✈ 27-Sep-2013 ✈ KCOD - KFFZ

Flight Track Log - Related Links

Times and Time Zones

All times are in EDT time to prevent confusion due to time zone crossing. See the N693EE flight status page for this flight to view local times or setup timezone preferences in your user account.

Time Position Orientation Groundspeed Altitude Reporting Facility
EDT Latitude Longitude Course Direction KTS MPH feet Rate Location/Type
11:09AM 44.5697 -108.9733 26° Northeast 135 155 7,800  Level Salt Lake Center
11:10AM 44.6092 -108.9681 North 139 160 9,400 1,500 Climbing Salt Lake Center
11:11AM 44.1838 -109.1265 192° South  Level FlightAware Approximate
11:11AM 44.6247 -108.9300 60° Northeast 174 200 10,900  Level Salt Lake Center
11:12AM 44.1280 -109.1433 192° South  Level FlightAware Approximate
11:12AM 44.5811 -108.9372 187° South 171 197 12,600  Level Salt Lake Center
11:13AM 44.0723 -109.1600 192° South  Level FlightAware Approximate
11:13AM 44.5367 -108.9519 193° South 165 190 14,300  Level Salt Lake Center
11:14AM 44.0171 -109.1798 196° South  Level FlightAware Approximate
11:15AM 44.4817 -108.9492 178° South 165 190 16,200  Level Salt Lake Center
11:16AM 44.4328 -108.9383 171° South 174 200 17,800 1,500 Climbing Salt Lake Center
11:17AM 44.3853 -108.9483 189° South 174 200 19,300 1,500 Climbing Salt Lake Center
11:18AM 44.3372 -108.9686 197° South 180 207 21,000 1,560 Climbing Salt Lake Center
11:19AM 44.2889 -108.9836 193° South 179 206 22,600 1,500 Climbing Salt Lake Center
11:20AM 44.2417 -109.0008 195° South 177 204 24,200 1,560 Climbing Salt Lake Center
11:21AM 44.1836 -109.0197 193° South 178 205 25,900 1,320 Climbing Salt Lake Center
11:22AM 44.1406 -109.0367 196° South 168 193 27,000 480 Climbing Salt Lake Center
11:23AM 44.0914 -109.0519 193° South 178 205 27,000  Level Salt Lake Center
11:24AM 44.0369 -109.0697 193° South 197 227 27,000  Level Salt Lake Center
11:25AM 43.9803 -109.0889 194° South 207 238 27,000  Level Salt Lake Center
11:26AM 43.9233 -109.1078 193° South 212 244 27,000  Level Salt Lake Center
11:27AM 43.8544 -109.1317 194° South 213 245 27,000  Level Salt Lake Center
11:28AM 43.7967 -109.1508 193° South 213 245 27,000  Level Salt Lake Center
11:29AM 43.7394 -109.1694 193° South 213 245 27,000  Level Salt Lake Center
11:30AM 43.6811 -109.1889 194° South 215 247 27,000  Level Salt Lake Center
11:31AM 43.6219 -109.2089 194° South 217 250 27,000  Level Salt Lake Center
11:32AM 43.5636 -109.2278 193° South 216 249 27,000  Level Salt Lake Center
11:33AM 43.4936 -109.2517 194° South 217 250 27,000  Level Salt Lake Center
11:34AM 43.4342 -109.2708 193° South 219 252 27,000  Level Salt Lake Center
11:35AM 43.3744 -109.2919 194° South 221 254 27,000  Level Salt Lake Center
11:36AM 43.3156 -109.3094 192° South 218 251 27,000  Level Salt Lake Center
11:37AM 43.2567 -109.3292 194° South 219 252 27,000  Level Salt Lake Center
11:38AM 43.1978 -109.3489 194° South 218 251 27,000  Level Salt Lake Center
11:39AM 43.1264 -109.3711 193° South 219 252 27,000  Level Salt Lake Center
11:40AM 43.0675 -109.3919 194° South 219 252 27,000  Level Salt Lake Center
11:41AM 43.0086 -109.4117 194° South 218 251 27,000  Level Salt Lake Center
11:42AM 42.9458 -109.4311 193° South 220 253 27,000  Level Salt Lake Center
11:43AM 42.8886 -109.4486 193° South 221 254 27,000  Level Salt Lake Center
11:44AM 42.8214 -109.4697 193° South 222 255 27,000  Level Salt Lake Center
11:46AM 42.7636 -109.4900 194° South 222 255 27,000  Level Salt Lake Center
11:47AM 42.6950 -109.5108 193° South 225 259 27,000  Level Salt Lake Center
11:48AM 42.6375 -109.5314 195° South 224 258 27,000  Level Salt Lake Center
11:49AM 42.5694 -109.5514 192° South 223 257 27,000  Level Salt Lake Center
11:50AM 42.5108 -109.5706 194° South 226 260 27,000  Level Salt Lake Center
11:51AM 42.4436 -109.5919 193° South 223 257 27,000  Level Salt Lake Center
11:52AM 42.3850 -109.6117 194° South 225 259 27,000  Level Salt Lake Center
11:53AM 42.3158 -109.6333 193° South 228 262 27,000  Level Salt Lake Center
11:54AM 42.2575 -109.6508 193° South 226 260 27,000  Level Salt Lake Center
11:55AM 42.1886 -109.6733 194° South 228 262 27,000  Level Salt Lake Center
11:56AM 42.1308 -109.6900 192° South 224 258 27,000  Level Salt Lake Center
11:57AM 42.0614 -109.7125 194° South 229 264 27,000  Level Salt Lake Center
11:58AM 42.0019 -109.7308 193° South 229 264 27,000  Level Salt Lake Center
11:59AM 41.9328 -109.7533 194° South 231 266 27,000  Level Salt Lake Center
12:00PM 41.8736 -109.7714 193° South 229 264 27,000  Level Salt Lake Center
12:01PM 41.8042 -109.7931 193° South 230 265 27,000  Level Salt Lake Center
12:02PM 41.7442 -109.8111 193° South 231 266 27,000  Level Salt Lake Center
12:03PM 41.6733 -109.8322 193° South 233 268 27,000  Level Salt Lake Center
12:04PM 41.6139 -109.8514 194° South 231 266 27,000  Level Salt Lake Center
12:05PM 41.5439 -109.8739 194° South 232 267 27,000  Level Salt Lake Center
12:06PM 41.4850 -109.8908 192° South 228 262 27,000  Level Salt Lake Center
12:07PM 41.4256 -109.9097 193° South 229 264 27,000  Level Salt Lake Center
12:08PM 41.3558 -109.9311 193° South 230 265 27,000  Level Salt Lake Center
12:09PM 41.2972 -109.9497 193° South 228 262 27,000  Level Salt Lake Center
12:10PM 41.2292 -109.9711 193° South 227 261 27,000  Level Salt Lake Center
12:11PM 41.1706 -109.9881 192° South 226 260 27,000  Level Salt Lake Center
12:12PM 41.1019 -110.0089 193° South 226 260 27,000  Level Salt Lake Center
12:13PM 41.0436 -110.0278 194° South 226 260 27,000  Level Salt Lake Center
12:14PM 40.9744 -110.0478 192° South 227 261 27,000  Level Salt Lake Center
12:16PM 40.9158 -110.0661 193° South 228 262 27,000  Level Salt Lake Center
12:17PM 40.8464 -110.0875 193° South 229 264 27,000  Level Salt Lake Center
12:18PM 40.7883 -110.1044 192° South 228 262 27,000  Level Salt Lake Center
12:19PM 40.7192 -110.1258 193° South 228 262 27,000  Level Salt Lake Center
12:20PM 40.6606 -110.1436 193° South 227 261 27,000  Level Salt Lake Center
12:21PM 40.5900 -110.1644 193° South 232 267 27,000  Level Salt Lake Center
12:22PM 40.5289 -110.1825 193° South 234 269 27,000  Level Salt Lake Center
12:23PM 40.4583 -110.2047 193° South 234 269 27,000  Level Salt Lake Center
12:24PM 40.3961 -110.2222 192° South 237 273 27,000  Level Salt Lake Center
12:25PM 40.3261 -110.2436 193° South 234 269 27,000  Level Salt Lake Center
12:26PM 40.2653 -110.2617 193° South 235 270 27,000  Level Salt Lake Center
12:27PM 40.1942 -110.2822 192° South 234 269 27,000  Level Salt Lake Center
12:28PM 40.1347 -110.3000 193° South 231 266 27,000  Level Salt Lake Center
12:29PM 40.0669 -110.3203 193° South 226 260 27,000  Level Salt Lake Center
12:30PM 40.0078 -110.3381 193° South 227 261 27,000  Level Salt Lake Center
12:31PM 39.9392 -110.3569 192° South 226 260 27,000  Level Salt Lake Center
12:32PM 39.8800 -110.3758 194° South 228 262 27,000  Level Salt Lake Center
12:33PM 39.8100 -110.3961 193° South 231 266 27,000  Level Salt Lake Center
12:34PM 39.7511 -110.4136 193° South 228 262 27,000  Level Salt Lake Center
12:35PM 39.6931 -110.4300 192° South 224 258 27,000  Level Salt Lake Center
12:36PM 39.6244 -110.4500 193° South 227 261 27,000  Level Salt Lake Center
12:37PM 39.5650 -110.4675 193° South 229 264 27,000  Level Salt Lake Center
12:38PM 39.4969 -110.4886 193° South 227 261 27,000  Level Salt Lake Center
12:39PM 39.4386 -110.5050 192° South 225 259 27,000  Level Salt Lake Center
12:40PM 39.3697 -110.5247 192° South 225 259 27,000  Level Salt Lake Center
12:41PM 39.3114 -110.5408 192° South 224 258 27,000  Level Salt Lake Center
12:43PM 39.2158 -110.5678 192° South 219 252 27,000  Level Denver Center
12:44PM 39.1481 -110.5861 192° South 222 255 27,000  Level Denver Center
12:45PM 39.0911 -110.6039 194° South 220 253 27,000  Level Denver Center
12:46PM 39.0242 -110.6225 192° South 219 252 27,000 -60 Level Denver Center
12:47PM 38.9681 -110.6381 192° South 219 252 26,900 -480 Descending Denver Center
12:48PM 38.9014 -110.6603 195° South 221 254 26,100 -960 Descending Denver Center
12:49PM 38.8347 -110.6794 193° South 245 282 25,000 -540 Descending Denver Center
12:50PM 38.7536 -110.7008 192° South 262 302 25,000  Level Denver Center
12:51PM 38.6872 -110.7186 192° South 258 297 25,000 -720 Level Denver Center
12:52PM 38.6067 -110.7433 193° South 265 305 23,600 -1,020 Descending Denver Center
12:53PM 38.5303 -110.7658 193° South 284 327 23,000 -300 Descending Denver Center
12:54PM 38.4453 -110.7869 191° South 282 325 23,000  Level Denver Center
12:55PM 38.3736 -110.8058 192° South 277 319 23,000  Level Denver Center
12:56PM 38.2925 -110.8303 193° South 272 313 23,000  Level Denver Center
12:57PM 38.2219 -110.8483 191° South 270 311 23,000  Level Denver Center
12:58PM 38.1514 -110.8692 193° South 271 312 23,000  Level Denver Center
01:00PM 38.0692 -110.8914 192° South 271 312 23,000  Level Denver Center
01:01PM 37.9958 -110.9119 192° South 267 307 23,000  Level Denver Center
01:02PM 37.9253 -110.9325 193° South 261 300 23,000  Level Denver Center
01:03PM 37.8550 -110.9514 192° South 259 298 23,000  Level Denver Center
01:04PM 37.7825 -110.9706 192° South 264 304 23,000  Level Denver Center
01:05PM 37.6958 -110.9956 193° South 265 305 23,000  Level Denver Center
01:06PM 37.6228 -111.0161 193° South 268 308 23,000  Level Denver Center
01:07PM 37.5506 -111.0358 192° South 265 305 23,000  Level Denver Center
01:08PM 37.4786 -111.0561 193° South 265 305 23,000  Level Denver Center
01:09PM 37.4192 -111.0722 192° South 269 310 23,000  Level Denver Center
01:10PM 37.3328 -111.0958 192° South 266 306 23,000  Level Denver Center
01:11PM 37.2472 -111.1194 192° South 262 302 23,000  Level Denver Center
01:12PM 37.1742 -111.1383 192° South 265 305 23,000  Level Denver Center
01:13PM 37.1011 -111.1586 192° South 267 307 23,000  Level Denver Center
01:14PM 37.0283 -111.1783 192° South 268 308 23,000  Level Denver Center
01:15PM 36.9564 -111.1978 192° South 265 305 23,000  Level Denver Center
01:16PM 36.8839 -111.2164 192° South 265 305 23,000  Level Denver Center
01:17PM 36.8000 -111.2394 192° South 259 298 23,000  Level Denver Center
01:18PM 36.7300 -111.2586 192° South 258 297 23,000  Level Denver Center
01:19PM 36.6622 -111.2769 192° South 253 291 23,000  Level Denver Center
01:20PM 36.5950 -111.2950 192° South 250 288 23,000  Level Denver Center
01:21PM 36.5264 -111.3125 192° South 251 289 23,000  Level Denver Center
01:22PM 36.4600 -111.3314 193° South 247 284 23,000  Level Denver Center
01:23PM 36.3806 -111.3522 192° South 243 280 23,000  Level Denver Center
01:25PM 36.3028 -111.3733 192° South 241 277 23,000  Level Denver Center
01:26PM 36.2383 -111.3906 192° South 237 273 23,000  Level Denver Center
01:27PM 36.1756 -111.4072 192° South 234 269 23,000  Level Denver Center
01:28PM 36.1125 -111.4242 192° South 233 268 23,000  Level Denver Center
01:29PM 36.0403 -111.4425 192° South 224 258 23,000  Level Denver Center
01:30PM 35.9800 -111.4583 192° South 222 255 23,000  Level Denver Center
01:31PM 35.9189 -111.4742 192° South 223 257 23,000  Level Denver Center
01:32PM 35.8575 -111.4903 192° South 226 260 23,000  Level Denver Center
01:33PM 35.7967 -111.5069 193° South 224 258 23,000  Level Denver Center
01:34PM 35.7361 -111.5225 192° South 223 257 23,000  Level Denver Center
01:35PM 35.6644 -111.5411 192° South 220 253 23,000  Level Denver Center
01:36PM 35.6061 -111.5578 193° South 216 249 23,000  Level Denver Center
01:37PM 35.5483 -111.5708 190° South 214 246 23,000  Level Denver Center
01:38PM 35.4906 -111.5872 193° South 213 245 23,000  Level Denver Center
01:39PM 35.4317 -111.6025 192° South 216 249 23,000 -480 Level Denver Center
01:40PM 35.3717 -111.6181 192° South 218 251 22,100 -960 Descending Denver Center
01:41PM 35.2903 -111.6403 193° South 242 278 21,100 -960 Descending Denver Center
01:43PM 35.1919 -111.6664 192° South 263 303 19,800 -900 Descending Albuquerque Center
01:44PM 35.1158 -111.6864 192° South 275 316 18,900 -840 Descending Albuquerque Center
01:45PM 35.0394 -111.7061 192° South 280 322 18,100 -840 Descending Albuquerque Center
01:46PM 34.9581 -111.7294 193° South 277 319 17,200 -480 Descending Albuquerque Center
01:47PM 34.8842 -111.7508 193° South 274 315 17,100 -60 Descending Albuquerque Center
01:48PM 34.8122 -111.7706 193° South 268 308 17,100  Level Albuquerque Center
01:49PM 34.7356 -111.7914 193° South 259 298 17,100  Level Albuquerque Center
01:50PM 34.6672 -111.8106 193° South 254 292 17,100 -240 Level Albuquerque Center
01:51PM 34.6003 -111.8297 193° South 249 287 16,700 -780 Descending Albuquerque Center
01:52PM 34.5111 -111.8558 194° South 268 308 15,600 -840 Descending Albuquerque Center
01:53PM 34.4353 -111.8778 193° South 277 319 15,000 -780 Descending Albuquerque Center
01:54PM 34.3603 -111.8992 193° South 278 320 14,100 -900 Descending Albuquerque Center
01:55PM 34.2867 -111.9189 192° South 274 315 13,200 -840 Descending Albuquerque Center
01:56PM 34.2089 -111.9211 181° South 281 323 12,400 -840 Descending Albuquerque Center
01:57PM 34.1297 -111.9264 183° South 287 330 11,500 -1,020 Descending Albuquerque Center
01:58PM 34.0367 -111.9275 181° South 283 326 10,400 -960 Descending Albuquerque Center
01:59PM 33.9719 -111.8872 153° Southeast 269 310 9,500 -900 Descending Albuquerque Center
02:00PM 33.9114 -111.8439 149° Southeast 262 302 8,600 -960 Descending Albuquerque Center
02:01PM 33.8433 -111.7950 149° Southeast 242 278 7,600 -1,020 Descending Albuquerque Center
02:02PM 33.7894 -111.7553 149° Southeast 231 266 6,600 -780 Descending Albuquerque Center
02:03PM 33.7383 -111.7161 147° Southeast 221 254 6,000 -720 Descending Albuquerque Center
02:04PM 33.6900 -111.6794 148° Southeast 208 239 5,200 -540 Descending Albuquerque Center
02:05PM 33.6378 -111.6886 188° South 193 222 5,000 -660 Descending Albuquerque Center
02:06PM 33.5744 -111.7069 194° South 193 222 3,900 -900 Descending Albuquerque Center
02:07PM 33.5256 -111.7078 181° South 176 203 3,200 -780 Descending Albuquerque Center
02:08PM 33.4881 -111.6986 168° South 141 162 2,400 -780 Descending Albuquerque Center
02:09PM 33.4653 -111.7214 220° Southwest 103 119 1,600 -780 Descending Albuquerque Center
02:11PM 33.4608 -111.7283 189° South  Level Estimated
02:18PM 33.4608 -111.7283 189° South  Level Estimated